createdAt,value
2018-09-13T00:01:03.944Z,50.70
2018-09-13T00:03:33.374Z,51.00
2018-09-13T00:06:02.531Z,50.90
2018-09-13T00:08:31.056Z,52.00
2018-09-13T00:10:59.622Z,51.80
2018-09-13T00:13:28.167Z,52.20
2018-09-13T00:15:56.930Z,52.30
2018-09-13T00:18:25.639Z,52.20
2018-09-13T00:20:55.426Z,53.10
2018-09-13T00:23:23.943Z,53.20
2018-09-13T00:25:52.530Z,52.20
2018-09-13T00:28:21.088Z,53.60
2018-09-13T00:30:49.602Z,53.40
2018-09-13T00:33:18.191Z,53.60
2018-09-13T00:35:46.702Z,53.20
2018-09-13T00:38:15.266Z,54.00
2018-09-13T00:40:43.815Z,53.90
2018-09-13T00:43:12.535Z,54.80
2018-09-13T00:45:41.011Z,56.10
2018-09-13T00:48:09.539Z,56.70
2018-09-13T00:50:38.035Z,56.70
2018-09-13T00:53:06.561Z,56.50
2018-09-13T00:55:35.091Z,56.50
2018-09-13T00:58:03.645Z,56.90
2018-09-13T01:00:32.136Z,56.50
2018-09-13T01:03:00.649Z,56.40
2018-09-13T01:05:29.295Z,56.40
2018-09-13T01:07:57.785Z,58.70
2018-09-13T01:10:26.251Z,57.80
2018-09-13T01:12:54.778Z,59.00
2018-09-13T01:15:23.295Z,60.00
2018-09-13T01:17:53.215Z,60.60
2018-09-13T01:20:21.727Z,60.70
2018-09-13T01:22:50.289Z,61.30
2018-09-13T01:25:18.838Z,60.90
2018-09-13T01:27:48.055Z,61.20
2018-09-13T01:30:16.964Z,61.80
2018-09-13T01:32:47.582Z,61.80
2018-09-13T01:35:16.151Z,61.70
2018-09-13T01:37:44.629Z,61.40
2018-09-13T01:40:13.165Z,61.00
2018-09-13T01:42:41.652Z,61.00
2018-09-13T01:45:10.774Z,61.40
2018-09-13T01:47:39.254Z,60.90
2018-09-13T01:50:07.803Z,59.90
2018-09-13T01:52:36.298Z,60.00
2018-09-13T01:55:05.106Z,59.70
2018-09-13T01:57:33.577Z,59.80
2018-09-13T02:00:02.219Z,60.10
2018-09-13T02:02:30.747Z,59.50
2018-09-13T02:04:59.427Z,59.80
2018-09-13T02:07:28.027Z,59.60
2018-09-13T02:09:56.528Z,59.70
2018-09-13T02:12:25.056Z,59.20
2018-09-13T02:14:53.918Z,59.40
2018-09-13T02:17:22.381Z,59.30
2018-09-13T02:19:51.641Z,59.60
2018-09-13T02:22:20.124Z,59.60
2018-09-13T02:24:50.417Z,59.50
2018-09-13T02:27:18.938Z,58.90
2018-09-13T02:29:47.412Z,58.80
2018-09-13T02:32:16.050Z,58.00
2018-09-13T02:34:44.510Z,59.00
2018-09-13T02:37:13.146Z,58.70
2018-09-13T02:39:41.622Z,58.90
2018-09-13T02:42:10.843Z,59.00
2018-09-13T02:44:39.330Z,58.70
2018-09-13T02:47:07.799Z,58.80
2018-09-13T02:49:36.991Z,58.60
2018-09-13T02:52:05.678Z,58.20
2018-09-13T02:54:34.164Z,58.60
2018-09-13T02:57:02.938Z,58.80
2018-09-13T02:59:31.422Z,58.90
2018-09-13T03:02:00.397Z,59.10
2018-09-13T03:04:28.953Z,58.90
2018-09-13T03:06:57.415Z,58.90
2018-09-13T03:09:25.986Z,58.20
2018-09-13T03:11:54.486Z,58.30
2018-09-13T03:14:22.993Z,58.90
2018-09-13T03:16:51.509Z,59.10
2018-09-13T03:19:21.558Z,59.40
2018-09-13T03:21:50.848Z,59.20
2018-09-13T03:24:19.349Z,59.20
2018-09-13T03:26:48.026Z,59.70
2018-09-13T03:29:16.611Z,59.70
2018-09-13T03:31:45.223Z,60.00
2018-09-13T03:34:13.823Z,60.50
2018-09-13T03:36:42.402Z,60.50
2018-09-13T03:39:12.350Z,60.40
2018-09-13T03:41:41.159Z,60.50
2018-09-13T03:44:09.775Z,60.50
2018-09-13T03:46:38.266Z,60.10
2018-09-13T03:49:06.751Z,60.50
2018-09-13T03:51:35.319Z,60.20
2018-09-13T03:54:03.805Z,60.40
2018-09-13T03:56:32.321Z,60.00
2018-09-13T03:59:00.882Z,59.90
2018-09-13T04:01:29.416Z,60.30
2018-09-13T04:03:57.972Z,59.60
2018-09-13T04:06:26.538Z,60.10
2018-09-13T04:08:55.059Z,60.00
2018-09-13T04:11:23.596Z,59.90
2018-09-13T04:13:52.117Z,59.70
2018-09-13T04:16:21.146Z,59.20
2018-09-13T04:18:50.465Z,59.40
2018-09-13T04:21:18.907Z,59.70
2018-09-13T04:23:47.578Z,59.10
2018-09-13T04:26:16.075Z,59.80
2018-09-13T04:28:45.500Z,59.40
2018-09-13T04:31:14.049Z,59.30
2018-09-13T04:33:42.556Z,59.20
2018-09-13T04:36:11.533Z,58.90
2018-09-13T04:38:40.058Z,58.70
2018-09-13T04:41:08.599Z,59.00
2018-09-13T04:43:37.315Z,59.00
2018-09-13T04:46:06.269Z,58.90
2018-09-13T04:48:35.531Z,58.40
2018-09-13T04:51:04.098Z,58.40
2018-09-13T04:53:33.657Z,58.60
2018-09-13T04:56:02.136Z,58.30
2018-09-13T04:58:30.925Z,58.20
2018-09-13T05:00:59.450Z,58.30
2018-09-13T05:03:27.970Z,58.10
2018-09-13T05:05:56.795Z,58.30
2018-09-13T05:08:25.279Z,58.00
2018-09-13T05:10:54.906Z,58.40
2018-09-13T05:13:23.453Z,58.10
2018-09-13T05:15:51.956Z,58.40
2018-09-13T05:18:20.903Z,58.20
2018-09-13T05:20:49.423Z,58.50
2018-09-13T05:23:17.911Z,58.30
2018-09-13T05:25:47.062Z,57.60
2018-09-13T05:28:15.597Z,58.30
2018-09-13T05:30:44.175Z,58.40
2018-09-13T05:33:12.665Z,59.10
2018-09-13T05:35:41.184Z,59.00
2018-09-13T05:38:09.708Z,58.60
2018-09-13T05:40:38.237Z,57.90
2018-09-13T05:43:06.800Z,58.10
2018-09-13T05:45:35.349Z,58.00
2018-09-13T05:48:03.864Z,57.40
2018-09-13T05:50:32.387Z,56.50
2018-09-13T05:53:00.881Z,55.40
2018-09-13T05:55:29.410Z,56.50
2018-09-13T05:57:58.899Z,56.70
2018-09-13T06:00:27.451Z,54.80
2018-09-13T06:02:56.901Z,56.40
2018-09-13T06:05:25.414Z,54.90
2018-09-13T06:07:54.187Z,56.30
2018-09-13T06:10:22.759Z,56.30
2018-09-13T06:12:51.234Z,56.30
2018-09-13T06:15:19.754Z,56.30
2018-09-13T06:17:48.218Z,56.30
2018-09-13T06:20:16.829Z,56.30
2018-09-13T06:22:45.314Z,56.30
2018-09-13T06:25:13.821Z,56.30
2018-09-13T06:27:42.286Z,56.30
2018-09-13T06:30:10.822Z,56.30
2018-09-13T06:32:39.274Z,56.30
2018-09-13T06:35:07.910Z,56.30
2018-09-13T06:37:36.426Z,56.40
2018-09-13T06:40:04.968Z,56.40
2018-09-13T06:42:33.603Z,56.40
2018-09-13T06:45:02.010Z,56.40
2018-09-13T06:47:30.658Z,56.50
2018-09-13T06:49:59.149Z,56.60
2018-09-13T06:52:27.668Z,56.50
2018-09-13T06:54:56.377Z,56.70
2018-09-13T06:57:25.536Z,55.70
2018-09-13T06:59:54.123Z,55.20
2018-09-13T07:02:23.457Z,54.80
2018-09-13T07:04:52.574Z,54.90
2018-09-13T07:07:21.335Z,54.90
2018-09-13T07:09:49.898Z,54.20
2018-09-13T07:12:18.449Z,54.00
2018-09-13T07:14:46.968Z,53.80
2018-09-13T07:17:15.474Z,53.70
2018-09-13T07:19:44.005Z,53.50
2018-09-13T07:22:12.520Z,53.60
2018-09-13T07:24:41.159Z,53.20
2018-09-13T07:27:09.680Z,53.50
2018-09-13T07:29:38.234Z,53.80
2018-09-13T07:32:07.088Z,53.40
2018-09-13T07:34:35.602Z,53.10
2018-09-13T07:37:04.212Z,53.10
2018-09-13T07:39:32.810Z,52.90
2018-09-13T07:42:02.351Z,52.90
2018-09-13T07:44:30.850Z,52.80
2018-09-13T07:46:59.446Z,51.50
2018-09-13T07:49:27.984Z,51.30
2018-09-13T07:51:56.859Z,50.90
2018-09-13T07:54:25.340Z,51.00
2018-09-13T07:56:53.885Z,51.10
2018-09-13T07:59:22.438Z,50.30
2018-09-13T08:01:51.452Z,49.60
2018-09-13T08:04:19.936Z,49.40
2018-09-13T08:06:48.462Z,48.70
2018-09-13T08:09:17.327Z,48.90
2018-09-13T08:11:45.851Z,49.30
2018-09-13T08:14:14.362Z,49.20
2018-09-13T08:16:43.126Z,50.10
2018-09-13T08:19:11.783Z,50.90
2018-09-13T08:21:40.741Z,51.00
2018-09-13T08:24:09.618Z,51.00
2018-09-13T08:26:38.980Z,51.10
2018-09-13T08:29:07.553Z,51.10
2018-09-13T08:31:36.123Z,51.20
2018-09-13T08:34:04.753Z,50.10
2018-09-13T08:36:34.235Z,50.30
2018-09-13T08:39:02.807Z,51.10
2018-09-13T08:41:31.329Z,51.10
2018-09-13T08:44:01.006Z,50.80
2018-09-13T08:46:29.507Z,50.20
2018-09-13T08:48:58.031Z,49.70
2018-09-13T08:51:26.846Z,49.00
2018-09-13T08:53:55.564Z,48.80
2018-09-13T08:56:24.072Z,48.50
2018-09-13T08:58:52.710Z,49.40
2018-09-13T09:01:21.550Z,49.90
2018-09-13T09:03:50.033Z,49.20
2018-09-13T09:06:18.542Z,50.40
2018-09-13T09:08:48.447Z,51.00
2018-09-13T09:11:16.967Z,50.40
2018-09-13T09:13:45.599Z,51.00
2018-09-13T09:16:14.131Z,51.10
2018-09-13T09:18:43.362Z,51.10
2018-09-13T09:21:12.373Z,51.20
2018-09-13T09:23:40.939Z,51.40
2018-09-13T09:26:09.624Z,50.80
2018-09-13T09:28:38.148Z,49.50
2018-09-13T09:31:06.679Z,49.60
2018-09-13T09:33:35.262Z,49.10
2018-09-13T09:36:05.179Z,49.20
2018-09-13T09:38:33.765Z,49.60
2018-09-13T09:41:02.819Z,49.50
2018-09-13T09:43:31.399Z,49.70
2018-09-13T09:46:00.226Z,49.50
2018-09-13T09:48:28.731Z,50.00
2018-09-13T09:50:57.223Z,49.60
2018-09-13T09:53:25.752Z,49.50
2018-09-13T09:55:54.270Z,48.90
2018-09-13T09:58:22.902Z,48.30
2018-09-13T10:00:56.773Z,48.90
2018-09-13T10:03:25.572Z,47.90
2018-09-13T10:05:54.197Z,48.40
2018-09-13T10:08:22.925Z,47.80
2018-09-13T10:10:52.011Z,47.20
2018-09-13T10:13:20.666Z,47.70
2018-09-13T10:15:54.566Z,47.60
2018-09-13T10:18:28.925Z,48.20
2018-09-13T10:21:03.109Z,48.00
2018-09-13T10:23:37.061Z,48.20
2018-09-13T10:28:13.578Z,48.10
2018-09-13T10:30:47.217Z,48.20
2018-09-13T10:33:20.970Z,48.90
2018-09-13T10:35:54.883Z,48.50
2018-09-13T10:38:28.671Z,48.50
2018-09-13T10:41:02.526Z,48.50
2018-09-13T10:43:36.366Z,48.90
2018-09-13T10:46:10.376Z,48.50
2018-09-13T10:48:43.166Z,48.10
2018-09-13T10:51:16.794Z,47.40
2018-09-13T10:53:51.817Z,47.80
2018-09-13T10:56:21.001Z,48.50
2018-09-13T10:58:50.247Z,48.20
2018-09-13T11:01:18.787Z,48.50
2018-09-13T11:03:47.426Z,48.70
2018-09-13T11:06:16.209Z,48.50
2018-09-13T11:08:44.767Z,48.50
2018-09-13T11:11:13.422Z,48.10
2018-09-13T11:13:43.511Z,48.50
2018-09-13T11:16:12.010Z,49.10
2018-09-13T11:18:40.670Z,48.60
2018-09-13T11:21:09.216Z,48.90
2018-09-13T11:23:38.052Z,48.80
2018-09-13T11:26:06.605Z,49.10
2018-09-13T11:28:35.167Z,49.20
2018-09-13T11:31:04.973Z,49.10
2018-09-13T11:33:34.785Z,49.40
2018-09-13T11:36:03.306Z,49.60
2018-09-13T11:38:32.185Z,50.40
2018-09-13T11:41:07.237Z,51.30
2018-09-13T11:43:35.870Z,55.90
2018-09-13T11:46:04.922Z,57.00
2018-09-13T11:48:34.353Z,57.40
2018-09-13T11:51:02.862Z,58.80
2018-09-13T11:53:31.399Z,58.00
2018-09-13T11:56:00.019Z,58.10
2018-09-13T11:58:28.558Z,59.10
2018-09-13T12:00:57.480Z,60.00
2018-09-13T12:03:26.116Z,60.80
2018-09-13T12:05:54.634Z,60.50
2018-09-13T12:08:24.255Z,58.30
2018-09-13T12:10:53.323Z,58.80
2018-09-13T12:13:21.925Z,57.30
2018-09-13T12:15:50.462Z,57.10
2018-09-13T12:18:19.031Z,58.10
2018-09-13T12:20:47.697Z,57.80
2018-09-13T12:23:16.247Z,57.60
2018-09-13T12:25:44.809Z,56.10
2018-09-13T12:28:13.308Z,55.60
2018-09-13T12:30:41.977Z,55.70
2018-09-13T12:33:10.705Z,55.10
2018-09-13T12:35:39.202Z,55.00
2018-09-13T12:38:07.937Z,54.40
2018-09-13T12:40:36.449Z,53.30
2018-09-13T12:43:05.017Z,52.90
2018-09-13T12:45:33.527Z,53.30
2018-09-13T12:48:02.110Z,53.10
2018-09-13T12:50:30.617Z,52.50
2018-09-13T12:52:59.370Z,52.60
2018-09-13T12:55:32.166Z,52.10
2018-09-13T12:58:01.812Z,51.00
2018-09-13T13:00:30.388Z,50.50
2018-09-13T13:02:59.437Z,50.60
2018-09-13T13:05:27.962Z,50.20
2018-09-13T13:07:56.752Z,50.80
2018-09-13T13:10:26.103Z,50.90
2018-09-13T13:12:54.718Z,50.40
2018-09-13T13:15:23.230Z,50.80
2018-09-13T13:17:52.124Z,50.50
2018-09-13T13:20:22.387Z,50.20
2018-09-13T13:22:50.975Z,50.50
2018-09-13T13:25:19.558Z,50.50
2018-09-13T13:27:48.162Z,50.50
2018-09-13T13:30:16.607Z,50.00
2018-09-13T13:32:45.657Z,49.80
2018-09-13T13:35:14.162Z,50.90
2018-09-13T13:37:43.257Z,50.80
2018-09-13T13:40:11.783Z,51.10
2018-09-13T13:42:40.277Z,51.00
2018-09-13T13:45:09.010Z,51.10
2018-09-13T13:47:37.733Z,50.90
2018-09-13T13:50:06.363Z,51.00
2018-09-13T13:52:34.856Z,51.30
2018-09-13T13:55:03.670Z,51.40
2018-09-13T13:57:32.986Z,51.60
2018-09-13T14:00:01.910Z,51.10
2018-09-13T14:02:30.364Z,51.30
2018-09-13T14:04:59.792Z,51.80
2018-09-13T14:07:28.893Z,52.00
2018-09-13T14:09:58.059Z,51.70
2018-09-13T14:12:26.594Z,51.80
2018-09-13T14:14:56.397Z,51.00
2018-09-13T14:17:25.932Z,52.00
2018-09-13T14:19:54.753Z,50.60
2018-09-13T14:22:23.359Z,50.90
2018-09-13T14:24:51.915Z,50.70
2018-09-13T14:27:20.421Z,51.30
2018-09-13T14:29:48.953Z,51.60
2018-09-13T14:32:17.454Z,52.10
2018-09-13T14:34:45.987Z,52.20
2018-09-13T14:37:14.566Z,52.20
2018-09-13T14:39:43.215Z,52.80
2018-09-13T14:42:11.843Z,53.40
2018-09-13T14:44:41.095Z,53.30
2018-09-13T14:47:09.738Z,52.90
2018-09-13T14:49:38.647Z,51.00
2018-09-13T14:52:07.297Z,52.20
2018-09-13T14:54:35.881Z,52.20
2018-09-13T14:57:05.159Z,52.20
2018-09-13T14:59:33.671Z,52.20
2018-09-13T15:02:02.212Z,52.60
2018-09-13T15:04:30.786Z,52.20
2018-09-13T15:06:59.283Z,52.20
2018-09-13T15:09:28.435Z,52.90
2018-09-13T15:11:57.892Z,53.10
2018-09-13T15:14:26.424Z,53.20
2018-09-13T15:16:55.110Z,53.00
2018-09-13T15:19:23.719Z,52.80
2018-09-13T15:21:52.351Z,52.30
2018-09-13T15:24:21.664Z,52.10
2018-09-13T15:26:50.251Z,52.10
2018-09-13T15:29:18.823Z,53.00
2018-09-13T15:31:47.410Z,53.40
2018-09-13T15:34:16.046Z,53.90
2018-09-13T15:36:44.642Z,54.20
2018-09-13T15:39:13.961Z,55.20
2018-09-13T15:41:42.577Z,55.30
2018-09-13T15:44:11.257Z,55.40
2018-09-13T15:46:39.762Z,55.10
2018-09-13T15:49:08.698Z,55.20
2018-09-13T15:51:38.428Z,55.00
2018-09-13T15:54:07.377Z,55.30
2018-09-13T15:56:37.994Z,55.50
2018-09-13T15:59:06.598Z,55.70
2018-09-13T16:01:35.442Z,56.20
2018-09-13T16:04:04.089Z,56.30
2018-09-13T16:06:32.669Z,56.60
2018-09-13T16:09:02.454Z,56.90
2018-09-13T16:11:31.751Z,57.40
2018-09-13T16:14:00.755Z,57.80
2018-09-13T16:16:29.440Z,58.40
2018-09-13T16:18:58.185Z,58.20
2018-09-13T16:21:26.695Z,58.20
2018-09-13T16:23:55.382Z,58.30
2018-09-13T16:26:24.632Z,56.40
2018-09-13T16:28:53.499Z,56.50
2018-09-13T16:31:22.548Z,56.00
2018-09-13T16:33:53.025Z,56.20
2018-09-13T16:36:26.070Z,57.10
2018-09-13T16:39:00.050Z,57.60
2018-09-13T16:41:38.524Z,57.50
2018-09-13T16:44:07.114Z,57.40
2018-09-13T16:46:41.602Z,57.30
2018-09-13T16:49:10.330Z,57.90
2018-09-13T16:51:38.988Z,57.30
2018-09-13T16:54:07.737Z,58.50
2018-09-13T16:56:36.348Z,59.10
2018-09-13T16:59:05.009Z,59.50
2018-09-13T17:01:33.919Z,59.60
2018-09-13T17:04:02.491Z,60.00
2018-09-13T17:06:31.031Z,59.80
2018-09-13T17:08:59.599Z,60.70
2018-09-13T17:11:29.446Z,60.60
2018-09-13T17:13:58.120Z,61.40
2018-09-13T17:16:27.649Z,61.40
2018-09-13T17:18:56.600Z,62.30
2018-09-13T17:21:25.806Z,62.40
2018-09-13T17:23:55.523Z,62.80
2018-09-13T17:26:24.129Z,63.50
2018-09-13T17:28:52.630Z,63.70
2018-09-13T17:31:21.954Z,63.80
2018-09-13T17:33:50.568Z,63.80
2018-09-13T17:36:19.250Z,64.00
2018-09-13T17:38:47.727Z,64.20
2018-09-13T17:41:16.444Z,64.40
2018-09-13T17:43:45.114Z,64.40
2018-09-13T17:46:13.706Z,64.40
2018-09-13T17:48:42.227Z,64.40
2018-09-13T17:51:10.841Z,64.40
2018-09-13T17:53:39.352Z,64.30
2018-09-13T17:56:08.241Z,64.40
2018-09-13T17:58:36.760Z,64.40
2018-09-13T18:01:05.346Z,64.50
2018-09-13T18:03:33.941Z,64.50
2018-09-13T18:06:02.553Z,64.60
2018-09-13T18:08:31.182Z,64.80
2018-09-13T18:10:59.988Z,65.10
2018-09-13T18:13:28.863Z,65.00
2018-09-13T18:15:57.457Z,64.80
2018-09-13T18:18:25.980Z,65.50
2018-09-13T18:20:54.738Z,65.00
2018-09-13T18:23:23.672Z,65.10
2018-09-13T18:25:52.243Z,65.80
2018-09-13T18:28:20.769Z,66.00
2018-09-13T18:30:49.540Z,66.40
2018-09-13T18:33:18.129Z,67.50
2018-09-13T18:35:46.679Z,66.10
2018-09-13T18:38:15.465Z,66.50
2018-09-13T18:40:44.003Z,66.10
2018-09-13T18:43:12.533Z,66.90
2018-09-13T18:45:41.671Z,66.50
2018-09-13T18:48:11.090Z,66.80
2018-09-13T18:50:39.705Z,66.90
2018-09-13T18:53:08.258Z,67.50
2018-09-13T18:55:37.128Z,66.40
2018-09-13T18:58:05.758Z,66.90
2018-09-13T19:00:34.375Z,66.80
2018-09-13T19:03:02.979Z,66.90
2018-09-13T19:05:31.753Z,67.30
2018-09-13T19:08:00.385Z,67.50
2018-09-13T19:10:28.911Z,67.90
2018-09-13T19:12:57.461Z,68.00
2018-09-13T19:15:26.049Z,68.10
2018-09-13T19:17:55.076Z,68.40
2018-09-13T19:20:23.916Z,69.10
2018-09-13T19:22:52.835Z,68.80
2018-09-13T19:25:21.404Z,69.00
2018-09-13T19:27:50.168Z,69.30
2018-09-13T19:30:18.903Z,69.10
2018-09-13T19:32:47.463Z,69.50
2018-09-13T19:35:16.002Z,69.90
2018-09-13T19:37:44.640Z,69.40
2018-09-13T19:40:13.270Z,69.70
2018-09-13T19:42:42.060Z,69.30
2018-09-13T19:45:10.621Z,69.40
2018-09-13T19:47:39.149Z,69.10
2018-09-13T19:50:07.726Z,69.20
2018-09-13T19:52:36.311Z,68.90
2018-09-13T19:55:05.182Z,69.10
2018-09-13T19:57:33.724Z,69.20
2018-09-13T20:00:02.475Z,69.20
2018-09-13T20:02:31.085Z,69.50
2018-09-13T20:04:59.820Z,69.40
2018-09-13T20:07:28.607Z,69.80
2018-09-13T20:09:57.426Z,69.90
2018-09-13T20:12:26.031Z,70.10
2018-09-13T20:14:55.390Z,69.30
2018-09-13T20:17:24.267Z,69.60
2018-09-13T20:19:53.323Z,69.90
2018-09-13T20:22:21.866Z,70.30
2018-09-13T20:24:50.808Z,70.10
2018-09-13T20:27:19.836Z,70.20
2018-09-13T20:29:48.326Z,70.60
2018-09-13T20:32:16.816Z,70.50
2018-09-13T20:34:45.467Z,70.70
2018-09-13T20:37:14.099Z,71.10
2018-09-13T20:39:42.980Z,71.10
2018-09-13T20:42:12.133Z,71.40
2018-09-13T20:44:41.159Z,71.80
2018-09-13T20:47:09.681Z,72.90
2018-09-13T20:49:38.224Z,73.00
2018-09-13T20:52:06.751Z,73.80
2018-09-13T20:54:35.286Z,74.30
2018-09-13T20:57:03.823Z,74.60
2018-09-13T20:59:32.579Z,74.60
2018-09-13T21:02:01.139Z,74.70
2018-09-13T21:04:30.106Z,74.30
2018-09-13T21:06:58.716Z,74.70
2018-09-13T21:09:27.910Z,75.50
2018-09-13T21:11:56.554Z,75.60
2018-09-13T21:14:25.318Z,76.30
2018-09-13T21:16:54.077Z,77.40
2018-09-13T21:19:23.062Z,77.70
2018-09-13T21:21:51.634Z,78.00
2018-09-13T21:24:20.312Z,79.00
2018-09-13T21:26:49.392Z,78.80
2018-09-13T21:29:17.890Z,79.40
2018-09-13T21:31:47.207Z,79.20
2018-09-13T21:34:15.766Z,79.60
2018-09-13T21:36:44.344Z,79.70
2018-09-13T21:39:12.838Z,79.90
2018-09-13T21:41:41.688Z,80.80
2018-09-13T21:44:10.212Z,79.80
2018-09-13T21:46:38.823Z,81.20
2018-09-13T21:49:07.334Z,81.50
2018-09-13T21:51:35.935Z,82.10
2018-09-13T21:54:04.466Z,82.70
2018-09-13T21:56:33.039Z,83.20
2018-09-13T21:59:01.607Z,84.10
2018-09-13T22:01:30.494Z,84.10
2018-09-13T22:03:59.112Z,84.10
2018-09-13T22:06:27.687Z,84.40
2018-09-13T22:08:56.203Z,84.90
2018-09-13T22:11:25.214Z,85.10
2018-09-13T22:13:53.770Z,85.00
2018-09-13T22:16:22.382Z,84.80
2018-09-13T22:18:51.651Z,84.60
2018-09-13T22:21:20.361Z,84.90
2018-09-13T22:23:48.827Z,85.20
2018-09-13T22:26:17.390Z,85.10
2018-09-13T22:28:45.896Z,85.10
2018-09-13T22:31:14.978Z,84.80
2018-09-13T22:33:43.470Z,84.60
2018-09-13T22:36:11.957Z,84.90
2018-09-13T22:38:40.499Z,85.40
2018-09-13T22:41:08.998Z,85.60
2018-09-13T22:43:42.921Z,85.10
2018-09-13T22:46:11.386Z,86.10
2018-09-13T22:48:39.943Z,85.90
2018-09-13T22:51:09.275Z,84.90
2018-09-13T22:53:37.890Z,85.30
2018-09-13T22:56:06.634Z,86.00
2018-09-13T22:58:35.302Z,85.70
2018-09-13T23:01:03.827Z,86.80
2018-09-13T23:03:32.354Z,86.80
2018-09-13T23:06:00.848Z,87.30
2018-09-13T23:08:29.383Z,87.50
2018-09-13T23:10:58.136Z,87.70
2018-09-13T23:13:26.743Z,86.90
2018-09-13T23:15:55.284Z,86.70
2018-09-13T23:18:23.839Z,87.70
2018-09-13T23:20:52.901Z,87.80
2018-09-13T23:23:21.459Z,86.70
2018-09-13T23:25:50.287Z,87.90
2018-09-13T23:28:18.812Z,88.20
2018-09-13T23:30:47.293Z,88.30
2018-09-13T23:33:15.848Z,88.80
2018-09-13T23:35:44.333Z,89.30
2018-09-13T23:38:12.858Z,90.00
2018-09-13T23:40:41.478Z,90.00
2018-09-13T23:43:09.919Z,90.40
2018-09-13T23:45:38.824Z,90.70
2018-09-13T23:48:07.523Z,90.40
2018-09-13T23:50:36.090Z,90.50
2018-09-13T23:53:04.609Z,90.50
2018-09-13T23:55:33.079Z,91.10
2018-09-13T23:58:02.526Z,91.10
